createdAt,value
2019-03-05T00:02:08.817Z,50.75
2019-03-05T00:04:38.528Z,49.15
2019-03-05T00:07:08.743Z,55.58
2019-03-05T00:09:38.352Z,49.67
2019-03-05T00:12:08.053Z,47.10
2019-03-05T00:14:38.172Z,45.95
2019-03-05T00:17:07.879Z,47.73
2019-03-05T00:19:38.715Z,49.10
2019-03-05T00:22:08.889Z,56.70
2019-03-05T00:25:00.670Z,49.53
2019-03-05T00:27:32.536Z,50.25
2019-03-05T00:30:20.246Z,51.85
2019-03-05T00:32:56.527Z,59.23
2019-03-05T00:35:29.297Z,49.55
2019-03-05T00:40:55.844Z,49.48
2019-03-05T00:43:35.075Z,56.02
2019-03-05T00:46:20.043Z,56.98
2019-03-05T00:49:02.447Z,55.58
2019-03-05T00:51:47.226Z,52.80
2019-03-05T00:54:42.619Z,60.10
2019-03-05T00:57:15.507Z,52.35
2019-03-05T00:59:51.337Z,55.30
2019-03-05T01:02:39.084Z,53.92
2019-03-05T01:05:18.299Z,56.68
2019-03-05T01:07:47.942Z,46.98
2019-03-05T01:10:19.190Z,53.60
2019-03-05T01:12:48.788Z,51.73
2019-03-05T01:15:18.485Z,45.98
2019-03-05T01:17:48.557Z,51.33
2019-03-05T01:20:18.198Z,57.40
2019-03-05T01:22:47.983Z,46.13
2019-03-05T01:25:29.127Z,53.45
2019-03-05T01:27:58.936Z,50.20
2019-03-05T01:30:55.447Z,48.90
2019-03-05T01:33:26.887Z,52.08
2019-03-05T01:36:01.526Z,49.35
2019-03-05T01:38:32.762Z,49.30
2019-03-05T01:41:04.413Z,52.35
2019-03-05T01:43:34.166Z,51.48
2019-03-05T01:46:04.242Z,53.30
2019-03-05T01:48:33.907Z,50.50
2019-03-05T01:51:03.659Z,47.88
2019-03-05T01:53:33.771Z,50.90
2019-03-05T01:56:03.434Z,46.60
2019-03-05T01:58:33.102Z,47.78
2019-03-05T02:01:03.617Z,49.70
2019-03-05T02:03:33.640Z,44.20
2019-03-05T02:06:04.728Z,45.43
2019-03-05T02:08:34.480Z,44.03
2019-03-05T02:11:04.393Z,46.55
2019-03-05T02:13:34.471Z,46.88
2019-03-05T02:16:04.121Z,45.60
2019-03-05T02:18:33.762Z,45.65
2019-03-05T02:21:03.921Z,38.92
2019-03-05T02:23:36.684Z,49.65
2019-03-05T02:29:01.520Z,44.55
2019-03-05T02:31:53.095Z,43.23
2019-03-05T02:34:25.939Z,47.70
2019-03-05T02:37:08.344Z,40.95
2019-03-05T02:40:00.614Z,48.78
2019-03-05T02:42:48.829Z,43.43
2019-03-05T02:45:31.713Z,49.08
2019-03-05T02:48:23.445Z,47.85
2019-03-05T02:51:24.921Z,40.35
2019-03-05T02:54:07.120Z,40.73
2019-03-05T02:56:42.904Z,41.15
2019-03-05T02:59:11.965Z,39.45
2019-03-05T03:01:46.197Z,39.50
2019-03-05T03:04:17.910Z,44.05
2019-03-05T03:06:47.587Z,43.00
2019-03-05T03:09:32.511Z,36.50
2019-03-05T03:12:02.586Z,39.88
2019-03-05T03:14:32.342Z,41.98
2019-03-05T03:17:01.944Z,44.33
2019-03-05T03:19:32.073Z,37.55
2019-03-05T03:22:01.768Z,35.30
2019-03-05T03:24:31.478Z,38.92
2019-03-05T03:27:01.697Z,43.35
2019-03-05T03:29:32.532Z,39.15
2019-03-05T03:32:05.418Z,41.20
2019-03-05T03:34:35.044Z,37.17
2019-03-05T03:37:05.450Z,52.67
2019-03-05T03:39:35.093Z,37.78
2019-03-05T03:42:04.866Z,39.70
2019-03-05T03:44:34.987Z,40.75
2019-03-05T03:47:04.713Z,43.58
2019-03-05T03:49:34.353Z,36.48
2019-03-05T03:52:04.435Z,40.03
2019-03-05T03:54:34.123Z,44.95
2019-03-05T03:57:05.344Z,48.30
2019-03-05T03:59:35.488Z,48.30
2019-03-05T04:02:06.217Z,46.98
2019-03-05T04:04:35.863Z,51.95
2019-03-05T04:07:06.051Z,46.33
2019-03-05T04:09:35.750Z,47.05
2019-03-05T04:12:05.402Z,46.45
2019-03-05T04:14:35.622Z,48.08
2019-03-05T04:17:05.304Z,45.95
2019-03-05T04:19:35.453Z,45.15
2019-03-05T04:22:05.522Z,43.68
2019-03-05T04:24:36.256Z,44.75
2019-03-05T04:27:05.945Z,38.85
2019-03-05T04:29:36.044Z,36.95
2019-03-05T04:32:05.797Z,34.43
2019-03-05T04:34:36.483Z,34.23
2019-03-05T04:37:06.551Z,33.45
2019-03-05T04:39:36.296Z,30.70
2019-03-05T04:42:05.940Z,31.02
2019-03-05T04:44:43.587Z,36.42
2019-03-05T04:47:13.464Z,30.23
2019-03-05T04:49:48.291Z,34.55
2019-03-05T04:52:19.130Z,31.30
2019-03-05T04:54:49.130Z,38.25
2019-03-05T04:57:18.825Z,29.82
2019-03-05T04:59:54.737Z,33.35
2019-03-05T05:02:30.732Z,28.62
2019-03-05T05:05:00.386Z,31.12
2019-03-05T05:07:32.230Z,31.30
2019-03-05T05:10:03.756Z,30.27
2019-03-05T05:12:33.869Z,33.65
2019-03-05T05:15:04.116Z,30.12
2019-03-05T05:17:33.830Z,21.02
2019-03-05T05:20:08.191Z,28.50
2019-03-05T05:22:37.761Z,22.80
2019-03-05T05:25:07.979Z,27.90
2019-03-05T05:27:37.593Z,27.40
2019-03-05T05:30:10.842Z,29.10
2019-03-05T05:32:41.025Z,25.43
2019-03-05T05:35:10.601Z,25.60
2019-03-05T05:37:40.243Z,25.10
2019-03-05T05:40:33.094Z,26.80
2019-03-05T05:43:03.049Z,20.80
2019-03-05T05:45:36.262Z,20.17
2019-03-05T05:48:05.969Z,28.83
2019-03-05T05:50:36.080Z,23.67
2019-03-05T05:53:05.738Z,26.20
2019-03-05T05:55:35.493Z,27.67
2019-03-05T05:58:05.724Z,31.10
2019-03-05T06:00:36.927Z,24.10
2019-03-05T06:03:07.119Z,20.08
2019-03-05T06:05:36.790Z,25.55
2019-03-05T06:08:06.443Z,25.32
2019-03-05T06:10:36.538Z,18.12
2019-03-05T06:13:06.180Z,27.62
2019-03-05T06:15:35.820Z,20.32
2019-03-05T06:18:06.039Z,24.25
2019-03-05T06:20:35.754Z,26.65
2019-03-05T06:23:05.459Z,28.02
2019-03-05T06:25:35.624Z,24.45
2019-03-05T06:28:05.266Z,27.75
2019-03-05T06:30:42.147Z,31.50
2019-03-05T06:33:12.226Z,21.45
2019-03-05T06:35:51.961Z,30.27
2019-03-05T06:38:22.171Z,24.72
2019-03-05T06:40:51.862Z,22.55
2019-03-05T06:43:26.146Z,21.30
2019-03-05T06:45:58.239Z,34.55
2019-03-05T06:48:27.938Z,39.95
2019-03-05T06:50:57.580Z,43.83
2019-03-05T06:53:27.782Z,33.60
2019-03-05T06:55:57.474Z,32.78
2019-03-05T06:58:27.184Z,28.35
2019-03-05T07:00:57.409Z,29.37
2019-03-05T07:03:27.054Z,26.77
2019-03-05T07:06:33.453Z,33.58
2019-03-05T07:09:09.457Z,31.42
2019-03-05T07:11:59.009Z,23.20
2019-03-05T07:14:59.492Z,19.17
2019-03-05T07:17:51.937Z,25.00
2019-03-05T07:20:40.479Z,20.23
2019-03-05T07:23:22.261Z,28.17
2019-03-05T07:25:52.493Z,28.92
2019-03-05T07:28:22.255Z,39.40
2019-03-05T07:30:52.067Z,24.65
2019-03-05T07:33:22.201Z,31.17
2019-03-05T07:35:51.842Z,24.02
2019-03-05T07:38:21.499Z,33.55
2019-03-05T07:40:51.688Z,27.73
2019-03-05T07:43:23.598Z,31.23
2019-03-05T07:45:53.692Z,27.82
2019-03-05T07:48:23.403Z,27.87
2019-03-05T07:50:53.128Z,30.95
2019-03-05T07:53:30.398Z,31.87
2019-03-05T07:55:57.955Z,28.35
2019-03-05T07:58:28.329Z,25.08
2019-03-05T08:01:00.056Z,32.58
2019-03-05T08:03:37.825Z,24.20
2019-03-05T08:06:08.828Z,26.00
2019-03-05T08:09:16.899Z,27.73
2019-03-05T08:15:22.444Z,31.73
2019-03-05T08:17:52.151Z,20.90
2019-03-05T08:20:31.623Z,28.02
2019-03-05T08:23:08.939Z,26.05
2019-03-05T08:25:42.273Z,24.80
2019-03-05T08:28:12.926Z,24.50
2019-03-05T08:30:42.612Z,24.30
2019-03-05T08:33:12.779Z,27.20
2019-03-05T08:35:44.763Z,29.95
2019-03-05T08:38:15.483Z,27.63
2019-03-05T08:40:45.242Z,25.45
2019-03-05T08:43:14.883Z,24.87
2019-03-05T08:45:45.059Z,29.50
2019-03-05T08:48:14.915Z,27.10
2019-03-05T08:50:44.577Z,28.65
2019-03-05T08:53:14.803Z,24.30
2019-03-05T08:55:44.448Z,29.05
2019-03-05T08:58:14.113Z,17.35
2019-03-05T09:00:44.333Z,20.60
2019-03-05T09:03:15.166Z,38.17
2019-03-05T09:05:44.748Z,23.92
2019-03-05T09:08:14.992Z,24.23
2019-03-05T09:10:44.647Z,21.68
2019-03-05T09:13:14.297Z,29.72
2019-03-05T09:15:44.431Z,22.45
2019-03-05T09:18:14.240Z,26.25
2019-03-05T09:20:44.051Z,27.25
2019-03-05T09:23:14.139Z,25.27
2019-03-05T09:25:43.787Z,21.60
2019-03-05T09:28:13.484Z,24.98
2019-03-05T09:30:43.708Z,19.87
2019-03-05T09:33:13.516Z,25.50
2019-03-05T09:35:43.163Z,21.40
2019-03-05T09:38:13.443Z,24.25
2019-03-05T09:40:43.141Z,25.10
2019-03-05T09:43:12.863Z,22.93
2019-03-05T09:45:43.082Z,23.22
2019-03-05T09:48:12.775Z,35.78
2019-03-05T09:50:42.465Z,26.02
2019-03-05T09:53:12.720Z,29.98
2019-03-05T09:55:42.322Z,24.27
2019-03-05T09:58:12.246Z,26.35
2019-03-05T10:00:42.250Z,29.25
2019-03-05T10:03:11.763Z,23.45
2019-03-05T10:05:41.261Z,26.52
2019-03-05T10:08:11.173Z,25.12
2019-03-05T10:10:40.783Z,28.92
2019-03-05T10:13:10.282Z,29.27
2019-03-05T10:15:40.159Z,23.42
2019-03-05T10:18:12.902Z,19.12
2019-03-05T10:20:40.850Z,21.62
2019-03-05T10:23:10.860Z,24.82
2019-03-05T10:25:40.364Z,19.75
2019-03-05T10:28:09.864Z,21.55
2019-03-05T10:30:41.312Z,24.90
2019-03-05T10:33:11.495Z,19.73
2019-03-05T10:35:41.653Z,23.77
2019-03-05T10:38:11.641Z,24.12
2019-03-05T10:40:46.732Z,23.47
2019-03-05T10:43:17.752Z,23.15
2019-03-05T10:45:48.203Z,23.92
2019-03-05T10:48:20.379Z,22.25
2019-03-05T10:50:50.044Z,21.05
2019-03-05T10:53:20.881Z,26.60
2019-03-05T10:55:50.687Z,23.42
2019-03-05T10:58:20.507Z,25.25
2019-03-05T11:00:53.121Z,36.08
2019-03-05T11:03:24.165Z,22.40
2019-03-05T11:05:54.599Z,30.97
2019-03-05T11:08:25.452Z,20.62
2019-03-05T11:10:55.744Z,26.10
2019-03-05T11:13:25.513Z,22.13
2019-03-05T11:15:57.613Z,19.60
2019-03-05T11:18:29.762Z,38.20
2019-03-05T11:20:59.241Z,25.52
2019-03-05T11:23:29.359Z,23.50
2019-03-05T11:25:59.271Z,21.37
2019-03-05T11:28:29.512Z,21.12
2019-03-05T11:30:59.531Z,19.27
2019-03-05T11:33:29.323Z,22.30
2019-03-05T11:36:01.394Z,23.40
2019-03-05T11:38:31.581Z,21.10
2019-03-05T11:41:01.315Z,27.00
2019-03-05T11:43:30.956Z,21.62
2019-03-05T11:46:01.090Z,22.13
2019-03-05T11:48:30.759Z,22.82
2019-03-05T11:51:00.454Z,20.88
2019-03-05T11:53:30.676Z,18.95
2019-03-05T11:56:00.377Z,20.92
2019-03-05T11:58:30.086Z,25.10
2019-03-05T12:01:01.851Z,37.20
2019-03-05T12:03:31.637Z,20.02
2019-03-05T12:06:01.778Z,28.55
2019-03-05T12:08:31.486Z,26.33
2019-03-05T12:11:01.188Z,19.60
2019-03-05T12:13:32.241Z,18.37
2019-03-05T12:16:01.943Z,21.42
2019-03-05T12:18:31.624Z,20.45
2019-03-05T12:21:01.775Z,22.85
2019-03-05T12:23:31.479Z,25.48
2019-03-05T12:26:01.133Z,21.70
2019-03-05T12:28:31.306Z,22.73
2019-03-05T12:31:01.007Z,20.05
2019-03-05T12:33:30.728Z,21.62
2019-03-05T12:36:00.843Z,23.42
2019-03-05T12:38:30.648Z,21.20
2019-03-05T12:41:00.330Z,28.38
2019-03-05T12:43:30.574Z,27.60
2019-03-05T12:46:00.251Z,21.50
2019-03-05T12:48:39.611Z,20.75
2019-03-05T12:51:01.707Z,39.33
2019-03-05T12:53:31.464Z,27.70
2019-03-05T12:56:01.170Z,24.40
2019-03-05T12:58:32.408Z,25.60
2019-03-05T13:01:02.154Z,33.08
2019-03-05T13:03:32.037Z,32.45
2019-03-05T13:06:02.154Z,26.17
2019-03-05T13:08:31.851Z,28.55
2019-03-05T13:11:01.570Z,26.85
2019-03-05T13:13:37.412Z,23.22
2019-03-05T13:16:07.245Z,35.65
2019-03-05T13:18:37.351Z,34.73
2019-03-05T13:21:07.739Z,27.58
2019-03-05T13:23:38.818Z,33.13
2019-03-05T13:26:11.042Z,21.62
2019-03-05T13:28:44.492Z,28.80
2019-03-05T13:31:15.209Z,31.57
2019-03-05T13:33:45.433Z,32.30
2019-03-05T13:36:16.669Z,26.40
2019-03-05T13:38:46.898Z,29.25
2019-03-05T13:41:16.857Z,28.80
2019-03-05T13:43:46.726Z,26.05
2019-03-05T13:46:17.863Z,24.10
2019-03-05T13:49:02.813Z,39.85
2019-03-05T13:51:59.475Z,25.35
2019-03-05T13:54:43.891Z,28.42
2019-03-05T13:57:19.766Z,28.02
2019-03-05T13:59:49.436Z,27.93
2019-03-05T14:02:22.635Z,27.82
2019-03-05T14:05:01.268Z,27.87
2019-03-05T14:08:09.526Z,30.20
2019-03-05T14:10:39.228Z,25.40
2019-03-05T14:13:09.419Z,31.95
2019-03-05T14:15:40.343Z,26.17
2019-03-05T14:18:10.097Z,25.68
2019-03-05T14:20:40.304Z,34.55
2019-03-05T14:23:10.009Z,25.55
2019-03-05T14:25:39.723Z,32.45
2019-03-05T14:28:09.863Z,32.38
2019-03-05T14:30:39.846Z,35.05
2019-03-05T14:33:09.734Z,38.28
2019-03-05T14:35:39.881Z,24.07
2019-03-05T14:38:09.570Z,34.03
2019-03-05T14:40:39.472Z,35.68
2019-03-05T14:43:09.741Z,41.33
2019-03-05T14:45:39.430Z,28.87
2019-03-05T14:48:09.168Z,32.05
2019-03-05T14:50:39.392Z,28.87
2019-03-05T14:53:09.040Z,34.75
2019-03-05T14:55:38.684Z,37.15
2019-03-05T14:58:08.772Z,39.88
2019-03-05T15:00:38.440Z,31.42
2019-03-05T15:03:08.299Z,38.63
2019-03-05T15:05:38.396Z,41.33
2019-03-05T15:08:10.096Z,45.00
2019-03-05T15:10:40.329Z,42.83
2019-03-05T15:13:16.230Z,40.78
2019-03-05T15:15:41.844Z,44.77
2019-03-05T15:18:11.536Z,41.92
2019-03-05T15:20:41.608Z,34.67
2019-03-05T15:23:11.904Z,41.77
2019-03-05T15:25:43.118Z,56.35
2019-03-05T15:28:13.910Z,46.95
2019-03-05T15:30:43.467Z,52.95
2019-03-05T15:33:13.118Z,55.88
2019-03-05T15:35:44.358Z,57.48
2019-03-05T15:38:15.106Z,55.45
2019-03-05T15:40:45.189Z,52.15
2019-03-05T15:43:15.325Z,59.55
2019-03-05T15:45:45.011Z,55.73
2019-03-05T15:48:15.172Z,43.17
2019-03-05T15:50:45.085Z,39.18
2019-03-05T15:53:15.030Z,43.25
2019-03-05T15:55:45.790Z,39.15
2019-03-05T15:58:15.446Z,45.70
2019-03-05T16:00:45.705Z,38.95
2019-03-05T16:03:15.857Z,38.75
2019-03-05T16:05:45.535Z,37.30
2019-03-05T16:08:15.341Z,38.17
2019-03-05T16:10:50.431Z,43.85
2019-03-05T16:13:19.388Z,41.35
2019-03-05T16:15:50.440Z,41.02
2019-03-05T16:18:20.090Z,40.17
2019-03-05T16:20:50.074Z,39.78
2019-03-05T16:23:20.281Z,33.83
2019-03-05T16:25:51.657Z,30.43
2019-03-05T16:28:21.951Z,32.15
2019-03-05T16:30:59.237Z,34.55
2019-03-05T16:33:36.972Z,37.00
2019-03-05T16:36:25.527Z,42.38
2019-03-05T16:38:56.071Z,42.80
2019-03-05T16:41:42.377Z,41.80
2019-03-05T16:44:14.221Z,41.05
2019-03-05T16:46:51.359Z,48.05
2019-03-05T16:49:39.044Z,46.37
2019-03-05T16:52:12.885Z,40.30
2019-03-05T16:54:50.378Z,29.40
2019-03-05T16:57:38.314Z,30.92
2019-03-05T17:00:25.735Z,34.30
2019-03-05T17:02:57.495Z,44.38
2019-03-05T17:05:29.184Z,38.45
2019-03-05T17:08:09.219Z,35.00
2019-03-05T17:10:56.902Z,34.53
2019-03-05T17:13:26.644Z,34.25
2019-03-05T17:15:57.064Z,26.68
2019-03-05T17:18:26.765Z,24.40
2019-03-05T17:20:56.691Z,24.67
2019-03-05T17:23:26.909Z,22.60
2019-03-05T17:25:56.556Z,17.50
2019-03-05T17:28:26.194Z,17.67
2019-03-05T17:30:56.549Z,18.15
2019-03-05T17:33:26.195Z,23.60
2019-03-05T17:35:55.861Z,28.07
2019-03-05T17:38:26.210Z,39.92
2019-03-05T17:41:08.862Z,54.58
2019-03-05T17:43:49.347Z,71.75
2019-03-05T17:46:20.700Z,56.80
2019-03-05T17:48:55.157Z,49.98
2019-03-05T17:51:27.899Z,34.40
2019-03-05T17:53:58.123Z,30.43
2019-03-05T17:56:27.871Z,26.33
2019-03-05T17:58:57.533Z,25.12
2019-03-05T18:01:27.755Z,16.90
2019-03-05T18:03:58.594Z,16.48
2019-03-05T18:06:28.306Z,15.43
2019-03-05T18:08:59.347Z,17.67
2019-03-05T18:11:29.153Z,20.25
2019-03-05T18:13:58.833Z,20.70
2019-03-05T18:16:29.121Z,17.45
2019-03-05T18:18:58.738Z,18.80
2019-03-05T18:21:28.458Z,17.10
2019-03-05T18:23:59.063Z,19.82
2019-03-05T18:26:30.289Z,15.78
2019-03-05T18:29:02.653Z,18.82
2019-03-05T18:31:32.363Z,14.35
2019-03-05T18:34:04.118Z,15.08
2019-03-05T18:36:34.329Z,17.45
2019-03-05T18:39:05.327Z,12.73
2019-03-05T18:41:42.141Z,12.73
2019-03-05T18:44:12.961Z,14.85
2019-03-05T18:46:42.644Z,14.18
2019-03-05T18:49:12.278Z,12.68
2019-03-05T18:51:42.352Z,11.45
2019-03-05T18:54:12.036Z,13.70
2019-03-05T18:56:41.724Z,11.05
2019-03-05T18:59:11.845Z,14.50
2019-03-05T19:01:42.411Z,12.33
2019-03-05T19:04:13.513Z,16.50
2019-03-05T19:06:43.215Z,15.08
